createdAt,value
2023-11-23T00:02:02.296Z,68.22
2023-11-23T00:04:29.050Z,68.41
2023-11-23T00:06:55.750Z,68.52
2023-11-23T00:09:22.475Z,68.50
2023-11-23T00:11:49.281Z,68.60
2023-11-23T00:14:16.009Z,68.40
2023-11-23T00:16:44.821Z,68.66
2023-11-23T00:19:11.679Z,68.50
2023-11-23T00:21:38.464Z,69.08
2023-11-23T00:24:06.250Z,68.93
2023-11-23T00:26:34.953Z,69.10
2023-11-23T00:29:01.946Z,69.22
2023-11-23T00:31:28.655Z,69.57
2023-11-23T00:33:55.848Z,69.57
2023-11-23T00:36:22.855Z,69.57
2023-11-23T00:38:49.822Z,69.47
2023-11-23T00:41:16.725Z,69.14
2023-11-23T00:43:43.374Z,69.36
2023-11-23T00:46:11.962Z,69.42
2023-11-23T00:48:38.935Z,69.01
2023-11-23T00:51:06.085Z,69.52
2023-11-23T00:53:33.468Z,69.37
2023-11-23T00:56:00.929Z,69.61
2023-11-23T00:58:27.851Z,69.52
2023-11-23T01:00:54.630Z,69.55
2023-11-23T01:03:21.472Z,69.76
2023-11-23T01:05:48.456Z,69.79
2023-11-23T01:08:16.372Z,69.97
2023-11-23T01:10:43.896Z,69.83
2023-11-23T01:13:10.573Z,70.06
2023-11-23T01:15:37.286Z,69.85
2023-11-23T01:18:04.754Z,69.71
2023-11-23T01:20:31.567Z,69.95
2023-11-23T01:22:58.454Z,70.02
2023-11-23T01:25:25.250Z,69.99
2023-11-23T01:27:51.952Z,70.17
2023-11-23T01:30:19.083Z,70.20
2023-11-23T01:32:46.085Z,70.42
2023-11-23T01:35:13.882Z,70.34
2023-11-23T01:37:40.662Z,70.50
2023-11-23T01:40:09.984Z,70.40
2023-11-23T01:42:36.864Z,70.64
2023-11-23T01:45:03.786Z,70.61
2023-11-23T01:47:32.657Z,70.54
2023-11-23T01:50:04.420Z,70.51
2023-11-23T01:52:31.655Z,70.80
2023-11-23T01:54:58.727Z,70.48
2023-11-23T01:57:26.440Z,70.70
2023-11-23T01:59:53.703Z,70.77
2023-11-23T02:02:20.512Z,71.39
2023-11-23T02:04:47.756Z,71.66
2023-11-23T02:07:14.551Z,71.88
2023-11-23T02:09:42.032Z,71.87
2023-11-23T02:12:10.787Z,72.05
2023-11-23T02:14:39.125Z,72.28
2023-11-23T02:17:19.135Z,72.46
2023-11-23T02:19:47.812Z,71.97
2023-11-23T02:22:14.591Z,72.48
2023-11-23T02:24:41.583Z,72.09
2023-11-23T02:27:09.955Z,72.16
2023-11-23T02:29:37.006Z,72.44
2023-11-23T02:32:08.388Z,72.63
2023-11-23T02:34:35.311Z,72.76
2023-11-23T02:37:02.124Z,72.90
2023-11-23T02:39:29.177Z,72.43
2023-11-23T02:41:56.691Z,73.03
2023-11-23T02:44:23.676Z,73.03
2023-11-23T02:46:51.228Z,73.41
2023-11-23T02:49:19.550Z,73.33
2023-11-23T02:51:46.869Z,73.14
2023-11-23T02:54:13.879Z,73.51
2023-11-23T02:56:41.137Z,73.72
2023-11-23T02:59:09.126Z,73.59
2023-11-23T03:01:36.329Z,73.66
2023-11-23T03:04:05.872Z,74.42
2023-11-23T03:06:32.830Z,74.32
2023-11-23T03:09:00.020Z,74.51
2023-11-23T03:11:27.723Z,74.51
2023-11-23T03:13:55.155Z,74.14
2023-11-23T03:16:21.906Z,74.38
2023-11-23T03:18:49.200Z,74.66
2023-11-23T03:21:16.269Z,74.74
2023-11-23T03:23:46.732Z,74.84
2023-11-23T03:26:14.114Z,74.83
2023-11-23T03:28:40.834Z,74.89
2023-11-23T03:31:09.121Z,75.19
2023-11-23T03:33:35.886Z,75.43
2023-11-23T03:36:02.950Z,75.32
2023-11-23T03:38:29.713Z,75.68
2023-11-23T03:40:59.122Z,75.74
2023-11-23T03:43:26.245Z,75.82
2023-11-23T03:45:53.021Z,75.96
2023-11-23T03:48:20.095Z,76.17
2023-11-23T03:50:47.654Z,76.17
2023-11-23T03:53:14.557Z,76.22
2023-11-23T03:55:41.285Z,76.03
2023-11-23T03:58:07.967Z,76.43
2023-11-23T04:00:36.009Z,76.37
2023-11-23T04:03:02.975Z,76.10
2023-11-23T04:05:29.911Z,76.63
2023-11-23T04:07:56.920Z,76.76
2023-11-23T04:10:23.602Z,76.61
2023-11-23T04:12:52.178Z,76.88
2023-11-23T04:15:19.223Z,77.08
2023-11-23T04:17:46.553Z,76.84
2023-11-23T04:20:14.311Z,77.16
2023-11-23T04:22:41.139Z,77.11
2023-11-23T04:25:09.757Z,77.12
2023-11-23T04:27:36.738Z,77.47
2023-11-23T04:30:05.468Z,77.21
2023-11-23T04:32:33.200Z,77.36
2023-11-23T04:34:59.919Z,77.13
2023-11-23T04:37:26.659Z,77.26
2023-11-23T04:39:53.634Z,77.35
2023-11-23T04:42:20.747Z,77.09
2023-11-23T04:44:47.600Z,77.25
2023-11-23T04:47:14.674Z,77.11
2023-11-23T04:49:41.436Z,77.59
2023-11-23T04:52:09.361Z,77.59
2023-11-23T04:54:36.484Z,78.06
2023-11-23T04:57:03.649Z,77.76
2023-11-23T04:59:30.770Z,77.75
2023-11-23T05:01:57.761Z,77.98
2023-11-23T05:04:25.347Z,77.81
2023-11-23T05:06:52.681Z,77.72
2023-11-23T05:09:19.684Z,78.07
2023-11-23T05:11:47.386Z,78.05
2023-11-23T05:14:14.101Z,78.23
2023-11-23T05:16:40.996Z,78.24
2023-11-23T05:19:07.856Z,78.27
2023-11-23T05:21:34.913Z,78.37
2023-11-23T05:24:03.844Z,78.76
2023-11-23T05:26:31.522Z,78.62
2023-11-23T05:28:58.302Z,78.75
2023-11-23T05:31:25.046Z,79.06
2023-11-23T05:33:51.905Z,79.26
2023-11-23T05:36:18.820Z,79.48
2023-11-23T05:38:45.612Z,79.54
2023-11-23T05:41:12.564Z,79.82
2023-11-23T05:43:39.291Z,80.19
2023-11-23T05:46:06.370Z,80.41
2023-11-23T05:48:33.088Z,80.62
2023-11-23T05:51:00.030Z,80.42
2023-11-23T05:53:26.792Z,80.80
2023-11-23T05:55:53.462Z,80.94
2023-11-23T05:58:20.261Z,81.52
2023-11-23T06:00:50.255Z,81.45
2023-11-23T06:03:21.131Z,81.67
2023-11-23T06:05:50.626Z,81.60
2023-11-23T06:08:17.316Z,81.78
2023-11-23T06:10:44.478Z,81.43
2023-11-23T06:13:11.234Z,81.94
2023-11-23T06:15:38.047Z,81.87
2023-11-23T06:18:13.306Z,82.10
2023-11-23T06:20:39.768Z,82.26
2023-11-23T06:23:06.536Z,82.27
2023-11-23T06:25:33.580Z,82.62
2023-11-23T06:28:12.372Z,82.71
2023-11-23T06:30:42.483Z,82.63
2023-11-23T06:33:09.587Z,82.70
2023-11-23T06:35:36.474Z,82.76
2023-11-23T06:38:04.234Z,82.57
2023-11-23T06:40:31.091Z,82.68
2023-11-23T06:42:58.009Z,82.50
2023-11-23T06:45:25.080Z,82.78
2023-11-23T06:47:52.137Z,82.82
2023-11-23T06:50:19.409Z,83.01
2023-11-23T06:52:46.371Z,83.32
2023-11-23T06:55:15.326Z,83.50
2023-11-23T06:57:47.947Z,83.86
2023-11-23T07:00:23.400Z,84.04
2023-11-23T07:02:50.980Z,84.61
2023-11-23T07:05:18.123Z,84.89
2023-11-23T07:07:45.265Z,85.58
2023-11-23T07:10:15.384Z,86.18
2023-11-23T07:12:44.168Z,86.70
2023-11-23T07:15:13.474Z,86.61
2023-11-23T07:17:41.220Z,87.08
2023-11-23T07:20:13.811Z,87.48
2023-11-23T07:22:40.876Z,87.62
2023-11-23T07:25:11.066Z,87.99
2023-11-23T07:27:38.901Z,88.19
2023-11-23T07:30:07.856Z,88.23
2023-11-23T07:32:34.900Z,88.41
2023-11-23T07:35:01.772Z,88.79
2023-11-23T07:37:30.075Z,88.69
2023-11-23T07:39:58.232Z,88.83
2023-11-23T07:42:26.803Z,89.34
2023-11-23T07:44:53.996Z,89.17
2023-11-23T07:47:21.208Z,89.58
2023-11-23T07:49:47.996Z,89.97
2023-11-23T07:52:15.296Z,90.45
2023-11-23T07:54:42.093Z,90.83
2023-11-23T07:57:09.042Z,90.96
2023-11-23T07:59:37.898Z,91.03
2023-11-23T08:02:06.191Z,91.32
2023-11-23T08:04:33.230Z,91.38
2023-11-23T08:07:00.505Z,91.31
2023-11-23T08:09:31.367Z,91.33
2023-11-23T08:11:58.666Z,91.47
2023-11-23T08:14:25.589Z,91.70
2023-11-23T08:16:52.646Z,91.90
2023-11-23T08:19:19.851Z,91.62
2023-11-23T08:21:49.977Z,91.66
2023-11-23T08:24:18.591Z,91.59
2023-11-23T08:26:45.856Z,91.64
2023-11-23T08:29:13.192Z,92.27
2023-11-23T08:31:41.123Z,92.30
2023-11-23T08:34:09.260Z,92.41
2023-11-23T08:36:37.253Z,92.51
2023-11-23T08:39:04.519Z,92.81
2023-11-23T08:41:32.654Z,93.16
2023-11-23T08:44:00.037Z,93.20
2023-11-23T08:46:27.044Z,93.07
2023-11-23T08:48:55.667Z,93.17
2023-11-23T08:51:23.799Z,93.02
2023-11-23T08:53:51.464Z,93.41
2023-11-23T08:56:18.627Z,93.38
2023-11-23T08:58:45.432Z,93.48
2023-11-23T09:01:12.317Z,93.94
2023-11-23T09:03:39.444Z,94.18
2023-11-23T09:06:09.790Z,94.33
2023-11-23T09:08:37.654Z,94.66
2023-11-23T09:11:04.419Z,94.86
2023-11-23T09:13:33.189Z,94.68
2023-11-23T09:16:01.215Z,95.01
2023-11-23T09:18:28.191Z,95.17
2023-11-23T09:20:58.349Z,94.81
2023-11-23T09:23:26.163Z,94.85
2023-11-23T09:25:52.890Z,94.91
2023-11-23T09:28:20.433Z,95.04
2023-11-23T09:30:47.758Z,95.21
2023-11-23T09:33:16.412Z,95.03
2023-11-23T09:35:43.743Z,95.47
2023-11-23T09:38:11.407Z,95.44
2023-11-23T09:40:38.419Z,95.48
2023-11-23T09:43:05.989Z,95.64
2023-11-23T09:45:33.490Z,95.51
2023-11-23T09:48:01.975Z,95.89
2023-11-23T09:50:34.021Z,95.82
2023-11-23T09:53:05.455Z,95.81
2023-11-23T09:55:32.799Z,95.84
2023-11-23T09:58:00.352Z,95.61
2023-11-23T10:00:27.163Z,95.57
2023-11-23T10:02:57.203Z,95.90
2023-11-23T10:05:25.426Z,96.04
2023-11-23T10:07:54.962Z,95.92
2023-11-23T10:10:22.298Z,96.07
2023-11-23T10:12:50.857Z,96.10
2023-11-23T10:15:17.983Z,96.42
2023-11-23T10:17:44.911Z,96.24
2023-11-23T10:20:16.682Z,96.41
2023-11-23T10:22:47.042Z,96.77
2023-11-23T10:25:23.166Z,96.84
2023-11-23T10:27:49.885Z,96.74
2023-11-23T10:30:17.891Z,96.71
2023-11-23T10:32:44.922Z,96.97
2023-11-23T10:35:14.032Z,97.01
2023-11-23T10:37:43.719Z,97.08
2023-11-23T10:40:14.605Z,97.09
2023-11-23T10:42:42.946Z,96.93
2023-11-23T10:45:13.839Z,97.07
2023-11-23T10:47:42.266Z,97.12
2023-11-23T10:50:12.174Z,96.95
2023-11-23T10:52:40.775Z,96.66
2023-11-23T10:55:09.012Z,96.64
2023-11-23T10:57:36.890Z,96.77
2023-11-23T11:00:08.600Z,96.73
2023-11-23T11:02:35.819Z,97.00
2023-11-23T11:05:04.710Z,97.11
2023-11-23T11:07:31.789Z,96.99
2023-11-23T11:10:06.636Z,96.64
2023-11-23T11:12:40.518Z,96.92
2023-11-23T11:15:09.062Z,96.87
2023-11-23T11:17:40.164Z,97.09
2023-11-23T11:20:11.229Z,97.37
2023-11-23T11:22:38.270Z,97.25
2023-11-23T11:25:05.570Z,97.33
2023-11-23T11:27:36.650Z,97.23
2023-11-23T11:30:03.945Z,97.53
2023-11-23T11:32:36.783Z,97.54
2023-11-23T11:35:09.953Z,97.21
2023-11-23T11:37:37.725Z,97.36
2023-11-23T11:40:06.877Z,97.68
2023-11-23T11:42:36.339Z,97.74
2023-11-23T11:45:07.392Z,97.76
2023-11-23T11:47:35.328Z,97.68
2023-11-23T11:50:02.186Z,97.91
2023-11-23T11:52:29.060Z,97.73
2023-11-23T11:54:56.020Z,97.80
2023-11-23T11:57:23.422Z,97.63
2023-11-23T11:59:50.429Z,97.76
2023-11-23T12:02:17.434Z,97.60
2023-11-23T12:04:45.421Z,97.89
2023-11-23T12:07:17.139Z,97.72
2023-11-23T12:09:46.981Z,98.00
2023-11-23T12:12:14.486Z,98.23
2023-11-23T12:14:41.754Z,98.08
2023-11-23T12:17:12.869Z,98.08
2023-11-23T12:19:50.787Z,98.23
2023-11-23T12:22:21.535Z,98.19
2023-11-23T12:24:48.454Z,98.19
2023-11-23T12:27:17.007Z,98.43
2023-11-23T12:29:45.034Z,98.16
2023-11-23T12:32:11.719Z,98.19
2023-11-23T12:34:38.446Z,98.09
2023-11-23T12:37:05.996Z,98.45
2023-11-23T12:39:32.855Z,97.90
2023-11-23T12:41:59.831Z,97.90
2023-11-23T12:44:26.883Z,97.61
2023-11-23T12:46:53.926Z,97.74
2023-11-23T12:49:21.477Z,97.79
2023-11-23T12:51:48.823Z,97.97
2023-11-23T12:54:16.265Z,97.77
2023-11-23T12:56:43.281Z,97.87
2023-11-23T12:59:10.160Z,97.64
2023-11-23T13:01:40.330Z,97.62
2023-11-23T13:04:09.928Z,97.59
2023-11-23T13:06:37.727Z,97.50
2023-11-23T13:09:05.388Z,97.56
2023-11-23T13:11:32.940Z,97.46
2023-11-23T13:13:59.693Z,97.30
2023-11-23T13:16:26.792Z,97.52
2023-11-23T13:19:10.377Z,97.45
2023-11-23T13:21:42.496Z,97.63
2023-11-23T13:24:13.179Z,97.66
2023-11-23T13:26:40.159Z,97.45
2023-11-23T13:29:07.460Z,97.32
2023-11-23T13:31:34.853Z,97.65
2023-11-23T13:34:01.988Z,97.81
2023-11-23T13:36:29.471Z,97.56
2023-11-23T13:38:57.681Z,97.65
2023-11-23T13:41:24.405Z,97.66
2023-11-23T13:43:51.149Z,97.73
2023-11-23T13:46:18.461Z,97.71
2023-11-23T13:48:47.463Z,97.88
2023-11-23T13:51:18.616Z,97.68
2023-11-23T13:53:45.423Z,97.92
2023-11-23T13:56:12.909Z,97.60
2023-11-23T13:58:39.929Z,97.72
2023-11-23T14:01:06.915Z,97.62
2023-11-23T14:03:36.266Z,97.35
2023-11-23T14:06:04.267Z,97.54
2023-11-23T14:08:31.021Z,97.71
2023-11-23T14:10:57.976Z,97.67
2023-11-23T14:13:26.640Z,97.69
2023-11-23T14:15:54.971Z,97.51
2023-11-23T14:18:23.032Z,97.62
2023-11-23T14:20:51.017Z,97.73
2023-11-23T14:23:18.598Z,97.63
2023-11-23T14:25:45.518Z,97.72
2023-11-23T14:28:16.154Z,97.74
2023-11-23T14:30:43.946Z,97.62
2023-11-23T14:33:12.635Z,97.49
2023-11-23T14:35:39.508Z,97.21
2023-11-23T14:38:06.707Z,97.35
2023-11-23T14:40:33.515Z,97.27
2023-11-23T14:43:00.343Z,97.14
2023-11-23T14:45:31.307Z,96.99
2023-11-23T14:48:00.029Z,97.10
2023-11-23T14:50:30.056Z,96.87
2023-11-23T14:52:57.400Z,96.91
2023-11-23T14:55:24.498Z,96.91
2023-11-23T14:57:51.493Z,96.75
2023-11-23T15:00:19.869Z,96.64
2023-11-23T15:02:47.066Z,96.74
2023-11-23T15:05:16.513Z,96.78
2023-11-23T15:07:43.768Z,96.65
2023-11-23T15:10:13.997Z,96.88
2023-11-23T15:12:41.275Z,96.74
2023-11-23T15:15:09.593Z,96.51
2023-11-23T15:17:37.620Z,96.66
2023-11-23T15:20:07.365Z,96.86
2023-11-23T15:22:34.402Z,96.48
2023-11-23T15:25:08.306Z,96.73
2023-11-23T15:27:37.317Z,96.78
2023-11-23T15:30:06.200Z,96.77
2023-11-23T15:32:38.760Z,96.95
2023-11-23T15:35:06.457Z,96.95
2023-11-23T15:37:33.204Z,97.11
2023-11-23T15:39:59.985Z,97.11
2023-11-23T15:42:27.669Z,97.03
2023-11-23T15:44:54.475Z,97.25
2023-11-23T15:47:21.282Z,97.29
2023-11-23T15:49:48.929Z,97.19
2023-11-23T15:52:16.211Z,97.16
2023-11-23T15:54:43.158Z,97.00
2023-11-23T15:57:11.302Z,97.08
2023-11-23T15:59:38.449Z,96.99
2023-11-23T16:02:05.945Z,97.06
2023-11-23T16:04:33.256Z,97.09
2023-11-23T16:07:01.896Z,96.95
2023-11-23T16:09:28.844Z,96.92
2023-11-23T16:11:56.198Z,96.98
2023-11-23T16:14:25.202Z,96.87
2023-11-23T16:16:52.049Z,96.63
2023-11-23T16:19:18.844Z,96.65
2023-11-23T16:21:45.718Z,96.61
2023-11-23T16:24:14.009Z,96.64
2023-11-23T16:26:41.016Z,96.67
2023-11-23T16:29:11.728Z,96.60
2023-11-23T16:31:43.301Z,96.31
2023-11-23T16:34:11.224Z,96.15
2023-11-23T16:36:40.496Z,96.05
2023-11-23T16:39:14.535Z,95.82
2023-11-23T16:41:41.375Z,95.80
2023-11-23T16:44:08.605Z,95.77
2023-11-23T16:46:35.361Z,95.72
2023-11-23T16:49:02.423Z,95.68
2023-11-23T16:51:30.326Z,95.58
2023-11-23T16:53:57.561Z,95.54
2023-11-23T16:56:24.556Z,95.47
2023-11-23T16:58:51.779Z,95.40
2023-11-23T17:01:19.045Z,95.47
2023-11-23T17:03:46.092Z,95.23
2023-11-23T17:06:13.594Z,95.18
2023-11-23T17:08:40.935Z,95.06
2023-11-23T17:11:10.223Z,95.03
2023-11-23T17:13:37.792Z,95.09
2023-11-23T17:16:04.836Z,94.88
2023-11-23T17:18:31.844Z,94.86
2023-11-23T17:20:58.880Z,94.86
2023-11-23T17:23:26.139Z,94.94
2023-11-23T17:25:53.214Z,94.67
2023-11-23T17:28:21.931Z,94.61
2023-11-23T17:30:49.885Z,94.40
2023-11-23T17:33:20.348Z,94.45
2023-11-23T17:35:47.324Z,94.35
2023-11-23T17:38:14.950Z,94.23
2023-11-23T17:40:42.912Z,94.24
2023-11-23T17:43:09.816Z,94.14
2023-11-23T17:45:37.036Z,94.09
2023-11-23T17:48:05.465Z,93.96
2023-11-23T17:50:32.290Z,93.92
2023-11-23T17:52:59.896Z,93.88
2023-11-23T17:55:28.471Z,93.87
2023-11-23T17:57:56.028Z,93.88
2023-11-23T18:00:25.779Z,93.92
2023-11-23T18:02:52.714Z,93.86
2023-11-23T18:05:19.905Z,93.89
2023-11-23T18:07:47.425Z,93.74
2023-11-23T18:10:16.291Z,93.62
2023-11-23T18:12:43.336Z,93.48
2023-11-23T18:15:12.968Z,93.40
2023-11-23T18:17:40.866Z,93.22
2023-11-23T18:20:12.625Z,93.25
2023-11-23T18:22:39.878Z,93.32
2023-11-23T18:25:08.880Z,93.37
2023-11-23T18:27:36.017Z,93.50
2023-11-23T18:30:02.996Z,93.65
2023-11-23T18:32:30.856Z,93.77
2023-11-23T18:34:57.648Z,93.86
2023-11-23T18:37:24.808Z,94.19
2023-11-23T18:39:51.668Z,94.37
2023-11-23T18:42:18.543Z,94.38
2023-11-23T18:44:45.500Z,94.68
2023-11-23T18:47:12.719Z,94.98
2023-11-23T18:49:39.556Z,95.07
2023-11-23T18:52:07.079Z,95.67
2023-11-23T18:54:33.928Z,95.82
2023-11-23T18:57:01.009Z,96.12
2023-11-23T18:59:27.738Z,96.21
2023-11-23T19:01:55.597Z,96.47
2023-11-23T19:04:23.475Z,96.69
2023-11-23T19:06:54.318Z,97.00
2023-11-23T19:09:23.809Z,97.13
2023-11-23T19:11:51.117Z,97.59
2023-11-23T19:14:18.022Z,97.85
2023-11-23T19:16:44.988Z,97.86
2023-11-23T19:19:14.012Z,98.08
2023-11-23T19:21:41.998Z,98.08
2023-11-23T19:24:11.168Z,97.98
2023-11-23T19:26:39.626Z,98.24
2023-11-23T19:29:09.242Z,98.26
2023-11-23T19:31:37.163Z,98.60
2023-11-23T19:34:05.497Z,98.52
2023-11-23T19:36:35.320Z,98.60
2023-11-23T19:39:03.893Z,98.80
2023-11-23T19:41:32.211Z,98.87
2023-11-23T19:43:59.733Z,99.21
2023-11-23T19:46:29.262Z,99.47
2023-11-23T19:48:57.864Z,99.41
2023-11-23T19:51:30.352Z,99.53
2023-11-23T19:54:00.989Z,99.85
2023-11-23T19:56:28.483Z,99.98
2023-11-23T19:58:55.350Z,99.80
2023-11-23T20:01:22.474Z,100.00
2023-11-23T20:03:49.427Z,100.00
2023-11-23T20:06:16.356Z,100.00
2023-11-23T20:08:44.472Z,100.00
2023-11-23T20:11:13.242Z,100.00
2023-11-23T20:13:40.790Z,100.00
2023-11-23T20:16:18.399Z,100.00
2023-11-23T20:18:51.308Z,100.00
2023-11-23T20:21:18.279Z,100.00
2023-11-23T20:23:44.978Z,100.00
2023-11-23T20:26:11.821Z,100.00
2023-11-23T20:28:38.845Z,100.00
2023-11-23T20:31:06.420Z,100.00
2023-11-23T20:33:33.420Z,100.00
2023-11-23T20:36:00.264Z,99.71
2023-11-23T20:38:27.065Z,99.30
2023-11-23T20:40:53.846Z,99.26
2023-11-23T20:43:22.506Z,98.95
2023-11-23T20:45:51.984Z,98.45
2023-11-23T20:48:18.829Z,98.50
2023-11-23T20:50:46.121Z,98.31
2023-11-23T20:53:12.884Z,98.18
2023-11-23T20:55:40.813Z,97.88
2023-11-23T20:58:09.008Z,97.93
2023-11-23T21:00:36.768Z,97.88
2023-11-23T21:03:05.075Z,97.86
2023-11-23T21:05:33.290Z,97.76
2023-11-23T21:08:01.599Z,97.61
2023-11-23T21:10:30.113Z,97.59
2023-11-23T21:12:57.215Z,97.64
2023-11-23T21:15:24.003Z,97.69
2023-11-23T21:17:51.002Z,97.62
2023-11-23T21:20:18.037Z,97.57
2023-11-23T21:22:45.041Z,97.40
2023-11-23T21:25:12.065Z,97.54
2023-11-23T21:27:43.504Z,97.45
2023-11-23T21:30:12.860Z,97.54
2023-11-23T21:32:40.522Z,97.93
2023-11-23T21:35:09.213Z,97.86
2023-11-23T21:37:36.717Z,97.93
2023-11-23T21:40:03.618Z,98.09
2023-11-23T21:42:30.977Z,97.98
2023-11-23T21:44:57.816Z,97.92
2023-11-23T21:47:24.619Z,97.65
2023-11-23T21:49:51.439Z,97.43
2023-11-23T21:52:18.309Z,97.45
2023-11-23T21:54:50.809Z,97.80
2023-11-23T21:57:25.064Z,97.78
2023-11-23T21:59:51.931Z,97.68
2023-11-23T22:02:18.817Z,97.87
2023-11-23T22:04:47.399Z,97.44
2023-11-23T22:07:14.295Z,97.04
2023-11-23T22:09:41.216Z,96.81
2023-11-23T22:12:09.562Z,96.75
2023-11-23T22:14:38.363Z,96.77
2023-11-23T22:17:05.755Z,96.80
2023-11-23T22:19:33.270Z,96.72
2023-11-23T22:22:00.665Z,96.37
2023-11-23T22:24:29.178Z,95.74
2023-11-23T22:26:59.544Z,95.19
2023-11-23T22:29:26.270Z,94.38
2023-11-23T22:31:56.559Z,94.22
2023-11-23T22:34:25.585Z,93.81
2023-11-23T22:36:55.848Z,93.44
2023-11-23T22:39:24.283Z,92.88
2023-11-23T22:41:52.543Z,92.76
2023-11-23T22:44:20.388Z,92.82
2023-11-23T22:46:49.915Z,92.83
2023-11-23T22:49:16.761Z,92.82
2023-11-23T22:51:44.230Z,92.63
2023-11-23T22:54:11.542Z,92.80
2023-11-23T22:56:38.882Z,92.45
2023-11-23T22:59:05.741Z,92.39
2023-11-23T23:01:32.616Z,92.38
2023-11-23T23:03:59.662Z,92.12
2023-11-23T23:06:26.600Z,92.05
2023-11-23T23:08:53.781Z,92.00
2023-11-23T23:11:20.517Z,92.01
2023-11-23T23:13:47.359Z,92.08
2023-11-23T23:16:15.418Z,91.86
2023-11-23T23:18:42.468Z,91.89
2023-11-23T23:21:09.804Z,91.71
2023-11-23T23:23:36.790Z,91.28
2023-11-23T23:26:03.941Z,91.32
2023-11-23T23:28:32.669Z,91.07
2023-11-23T23:31:00.140Z,91.01
2023-11-23T23:33:27.090Z,90.52
2023-11-23T23:35:54.349Z,90.47
2023-11-23T23:38:21.133Z,90.36
2023-11-23T23:40:51.393Z,90.19
2023-11-23T23:43:18.768Z,90.26
2023-11-23T23:45:45.786Z,90.21
2023-11-23T23:48:12.700Z,89.39
2023-11-23T23:50:41.788Z,89.09
2023-11-23T23:53:08.840Z,88.74
2023-11-23T23:55:35.663Z,88.83
2023-11-23T23:58:04.967Z,88.92
